Flight Track Log - Related Links

Times and Time Zones

All times are in EDT time to prevent confusion due to time zone crossing. See the EGF2832 flight status page for this flight to view local times or setup timezone preferences in your user account.

Time Position Orientation Groundspeed Altitude Reporting Facility
EDT Latitude Longitude Course Direction KTS MPH feet Rate Location/Type
Tue 07:18:52 PM 35.5883 -106.1097 115° Southeast 175 201 7,800  Level Albuquerque Center
Tue 07:19:54 PM 35.5358 -106.0614 143° Southeast 252 290 10,100 2,439 Climbing Albuquerque Center
Tue 07:20:55 PM 35.5039 -105.9789 115° Southeast 263 303 12,800 2,341 Climbing Albuquerque Center
Tue 07:21:57 PM 35.4717 -105.8950 115° Southeast 270 311 14,900 2,129 Climbing Albuquerque Center
Tue 07:22:59 PM 35.4306 -105.7978 117° Southeast 287 330 17,200 2,000 Climbing Albuquerque Center
Tue 07:24:00 PM 35.2442 -105.3647 115° Southeast  Level FlightAware Approximate
Tue 07:24:00 PM 35.3908 -105.7008 117° Southeast 307 353 19,000  Level Albuquerque Center
Tue 07:25:02 PM 35.3433 -105.5917 118° Southeast 346 398 20,600 1,610 Climbing Albuquerque Center
Tue 07:26:03 PM 35.2967 -105.4772 117° Southeast 367 422 22,300 1,659 Climbing Albuquerque Center
Tue 07:27:05 PM 35.2467 -105.3589 117° Southeast 382 440 24,000 1,756 Climbing Albuquerque Center
Tue 07:28:06 PM 35.1958 -105.2397 118° Southeast 390 449 25,900 1,854 Climbing Albuquerque Center
Tue 07:29:08 PM 35.1453 -105.1211 118° Southeast 390 449 27,800 1,887 Climbing Albuquerque Center
Tue 07:30:10 PM 35.0928 -104.9811 115° Southeast 389 448 29,800 1,805 Climbing Albuquerque Center
Tue 07:31:11 PM 35.0614 -104.8544 107° East 387 445 31,500 1,561 Climbing Albuquerque Center
Tue 07:32:13 PM 35.0272 -104.7294 108° East 387 445 33,000 732 Climbing Albuquerque Center
Tue 07:33:14 PM 34.9917 -104.6003 109° East 396 456 33,000 49 Level Albuquerque Center
Tue 07:34:16 PM 34.9558 -104.4717 109° East 400 460 33,100 1,122 Climbing Albuquerque Center
Tue 07:35:17 PM 34.9211 -104.3422 108° East 401 461 35,300 1,756 Climbing Albuquerque Center
Tue 07:36:19 PM 34.8872 -104.2208 109° East 385 443 36,700 829 Climbing Albuquerque Center
Tue 07:37:20 PM 34.8522 -104.0983 109° East 383 441 37,000 146 Climbing Albuquerque Center
Tue 07:38:22 PM 34.8122 -103.9511 108° East 389 448 37,000  Level Albuquerque Center
Tue 07:39:23 PM 34.7767 -103.8217 108° East 399 459 37,000  Level Albuquerque Center
Tue 07:40:25 PM 34.7394 -103.6917 109° East 403 464 37,000  Level Albuquerque Center
Tue 07:41:26 PM 34.7028 -103.5622 109° East 403 464 37,000  Level Albuquerque Center
Tue 07:42:28 PM 34.6683 -103.4333 108° East 400 460 37,000  Level Albuquerque Center
Tue 07:43:29 PM 34.6525 -103.3008 98° East 395 455 37,000  Level Albuquerque Center
Tue 07:44:31 PM 34.6336 -103.1694 100° East 393 452 37,000  Level Albuquerque Center
Tue 07:45:32 PM 34.6150 -103.0397 100° East 389 448 37,000  Level Albuquerque Center
Tue 07:46:34 PM 34.5947 -102.9117 101° East 386 444 37,000  Level Albuquerque Center
Tue 07:47:35 PM 34.5750 -102.7817 100° East 389 448 37,000  Level Albuquerque Center
Tue 07:48:37 PM 34.5528 -102.6431 101° East 385 443 37,000  Level Albuquerque Center
Tue 07:49:38 PM 34.5347 -102.5161 100° East 384 442 37,000  Level Albuquerque Center
Tue 07:50:40 PM 34.5150 -102.3911 101° East 381 438 37,000  Level Albuquerque Center
Tue 07:51:42 PM 34.4950 -102.2650 101° East 382 440 37,000  Level Albuquerque Center
Tue 07:52:43 PM 34.4719 -102.1150 101° East 380 437 37,000  Level Albuquerque Center
Tue 07:53:45 PM 34.4517 -101.9894 101° East 381 438 37,000  Level Albuquerque Center
Tue 07:54:46 PM 34.4325 -101.8647 101° East 381 438 37,000  Level Albuquerque Center
Tue 07:55:48 PM 34.4122 -101.7419 101° East 377 434 37,000  Level Albuquerque Center
Tue 07:56:49 PM 34.3933 -101.6175 100° East 377 434 37,000  Level Albuquerque Center
Tue 07:57:51 PM 34.3722 -101.4942 102° East 376 433 37,000  Level Albuquerque Center
Tue 07:58:18 PM 34.3614 -101.4236 101° East 379 436 37,000  Level Fort Worth Center
Tue 07:59:18 PM 34.3422 -101.3019 101° East 377 434 37,000  Level Fort Worth Center
Tue 08:00:18 PM 34.3189 -101.1778 103° East 372 428 37,000  Level Fort Worth Center
Tue 08:01:18 PM 34.2997 -101.0511 100° East 383 441 37,000  Level Fort Worth Center
Tue 08:02:18 PM 34.2844 -100.9272 98° East 383 441 37,000  Level Fort Worth Center
Tue 08:03:18 PM 34.2692 -100.8011 98° East 383 441 37,000  Level Fort Worth Center
Tue 08:04:18 PM 34.2433 -100.6769 104° East 378 435 37,000  Level Fort Worth Center
Tue 08:05:18 PM 34.2131 -100.5553 107° East 378 435 37,000  Level Fort Worth Center
Tue 08:06:18 PM 34.1828 -100.4286 106° East 383 441 37,000  Level Fort Worth Center
Tue 08:07:18 PM 34.1544 -100.3097 106° East 389 448 37,000  Level Fort Worth Center
Tue 08:08:18 PM 34.1219 -100.1731 106° East 405 466 37,000  Level Fort Worth Center
Tue 08:09:18 PM 34.0914 -100.0392 105° East 412 474 37,000  Level Fort Worth Center
Tue 08:10:18 PM 34.0567 -99.9003 107° East 422 486 37,000  Level Fort Worth Center
Tue 08:11:18 PM 34.0239 -99.7617 106° East 422 486 37,000  Level Fort Worth Center
Tue 08:12:18 PM 33.9892 -99.6103 105° East 422 486 37,000 -450 Level Fort Worth Center
Tue 08:13:18 PM 33.9539 -99.4717 107° East 422 486 36,100 -1,450 Descending Fort Worth Center
Tue 08:14:18 PM 33.9186 -99.3358 107° East 422 486 34,100 -2,000 Descending Fort Worth Center
Tue 08:15:18 PM 33.8850 -99.2000 107° East 422 486 32,100 -2,000 Descending Fort Worth Center
Tue 08:16:18 PM 33.8517 -99.0592 106° East 427 491 30,100 -2,000 Descending Fort Worth Center
Tue 08:17:18 PM 33.8117 -98.9158 109° East 432 497 28,100 -2,050 Descending Fort Worth Center
Tue 08:18:18 PM 33.7631 -98.7728 112° Southeast 450 518 26,000 -1,900 Descending Fort Worth Center
Tue 08:19:18 PM 33.7186 -98.6347 111° Southeast 455 524 24,300 -1,050 Descending Fort Worth Center
Tue 08:20:18 PM 33.6700 -98.4892 112° Southeast 455 524 23,900 -1,350 Descending Fort Worth Center
Tue 08:21:18 PM 33.6272 -98.3564 111° Southeast 446 513 21,600 -2,400 Descending Fort Worth Center
Tue 08:22:18 PM 33.5822 -98.2264 113° Southeast 432 497 19,100 -2,550 Descending Fort Worth Center
Tue 08:23:18 PM 33.5433 -98.1114 112° Southeast 412 474 16,500 -2,650 Descending Fort Worth Center
Tue 08:24:18 PM 33.4958 -97.9739 112° Southeast 412 474 13,800 -2,100 Descending Fort Worth Center
Tue 08:25:18 PM 33.4628 -97.8742 112° Southeast 382 440 12,300 -1,350 Descending Fort Worth Center
Tue 08:26:18 PM 33.4236 -97.7669 114° Southeast 326 375 11,100 -700 Descending Fort Worth Center
Tue 08:27:18 PM 33.3967 -97.6847 111° Southeast 297 342 10,900 -550 Descending Fort Worth Center
Tue 08:28:18 PM 33.3531 -97.6025 122° Southeast 291 335 10,000 -1,000 Descending Fort Worth Center
Tue 08:29:18 PM 33.2925 -97.5253 133° Southeast 291 335 8,900 -1,000 Descending Fort Worth Center
Tue 08:30:18 PM 33.2361 -97.4606 136° Southeast 286 329 8,000 -850 Descending Fort Worth Center
Tue 08:31:18 PM 33.1861 -97.3961 133° Southeast 273 314 7,200 -750 Descending Fort Worth Center
Tue 08:32:18 PM 33.1361 -97.3342 134° Southeast 268 308 6,500 -900 Descending Fort Worth Center
Tue 08:33:18 PM 33.0858 -97.2722 134° Southeast 256 295 5,400 -1,100 Descending Fort Worth Center

Login

Don't have an account? Register now (free) for customized features, flight alerts, and more!